Boltshope Park, United Kingdom
Current Conditions -  °F | °C
As of 8:50 PM on Thursday 18 Dec 2014 (Local Time) from EGNT Reporting Station
Few Clouds Few Clouds  
Wind Chill: 40°   Ceiling: Unl
Heat Index: 48°   Visibility: 6mi
Dew Point: 43°   Wind: 25mph
Humidity: 82%   Direction: 270°W
Pressure: 29.44"   Gusts: NA
Location:  54.82°N, 2.08°W
Report Text: EGNT 182050Z 27022KT 9999 FEW019 09/06 Q0997
Loading
Personal Weather Stations






























Interactive Weather Map New forecast layout! Learn more

10-Day Weather Forecast

Advertisements
Track Severe Weather on mobile